createdAt,value
2022-11-07T00:01:18.595Z,13.50
2022-11-07T00:04:22.296Z,13.43
2022-11-07T00:07:25.976Z,13.49
2022-11-07T00:10:30.941Z,13.23
2022-11-07T00:13:35.024Z,13.41
2022-11-07T00:16:38.815Z,13.57
2022-11-07T00:19:42.714Z,13.62
2022-11-07T00:22:46.277Z,13.71
2022-11-07T00:25:51.381Z,13.79
2022-11-07T00:28:54.779Z,13.81
2022-11-07T00:31:59.630Z,13.86
2022-11-07T00:35:04.126Z,13.88
2022-11-07T00:38:07.923Z,13.88
2022-11-07T00:41:13.208Z,13.90
2022-11-07T00:44:17.109Z,13.84
2022-11-07T00:47:20.581Z,13.83
2022-11-07T00:50:42.860Z,13.87
2022-11-07T00:54:05.488Z,13.95
2022-11-07T00:57:11.050Z,13.84
2022-11-07T01:00:15.527Z,13.78
2022-11-07T01:03:36.886Z,13.82
2022-11-07T01:06:43.097Z,13.76
2022-11-07T01:09:46.689Z,13.82
2022-11-07T01:12:51.753Z,13.88
2022-11-07T01:15:55.635Z,13.87
2022-11-07T01:18:59.774Z,13.90
2022-11-07T01:22:03.457Z,13.93
2022-11-07T01:25:07.216Z,13.88
2022-11-07T01:28:12.870Z,13.77
2022-11-07T01:31:17.421Z,13.84
2022-11-07T01:34:21.313Z,13.78
2022-11-07T01:37:24.806Z,13.87
2022-11-07T01:40:29.327Z,13.96
2022-11-07T01:43:47.443Z,14.03
2022-11-07T01:46:52.135Z,14.03
2022-11-07T01:49:56.300Z,14.03
2022-11-07T01:53:00.169Z,14.04
2022-11-07T01:56:04.554Z,14.01
2022-11-07T01:59:11.972Z,13.95
2022-11-07T02:02:16.473Z,13.97
2022-11-07T02:05:26.173Z,13.89
2022-11-07T02:08:33.814Z,13.88
2022-11-07T02:11:37.683Z,13.90
2022-11-07T02:14:43.124Z,13.84
2022-11-07T02:17:46.857Z,13.92
2022-11-07T02:20:50.593Z,13.98
2022-11-07T02:24:02.369Z,13.89
2022-11-07T02:27:14.246Z,13.83
2022-11-07T02:30:20.978Z,13.93
2022-11-07T02:33:25.109Z,14.01
2022-11-07T02:36:29.331Z,14.10
2022-11-07T02:39:32.763Z,13.98
2022-11-07T02:42:46.209Z,14.06
2022-11-07T02:45:51.523Z,13.97
2022-11-07T02:48:57.592Z,14.04
2022-11-07T02:52:01.797Z,14.09
2022-11-07T02:55:07.545Z,14.03
2022-11-07T02:58:12.276Z,14.05
2022-11-07T03:01:16.966Z,13.79
2022-11-07T03:04:20.540Z,13.89
2022-11-07T03:07:24.175Z,13.95
2022-11-07T03:10:27.546Z,13.94
2022-11-07T03:13:33.356Z,13.96
2022-11-07T03:16:37.219Z,14.04
2022-11-07T03:19:41.464Z,14.08
2022-11-07T03:22:45.552Z,14.11
2022-11-07T03:25:49.443Z,14.12
2022-11-07T03:28:54.349Z,14.15
2022-11-07T03:31:58.377Z,14.09
2022-11-07T03:35:01.821Z,14.02
2022-11-07T03:38:05.702Z,14.03
2022-11-07T03:41:09.276Z,14.08
2022-11-07T03:44:14.507Z,14.15
2022-11-07T03:47:17.948Z,14.12
2022-11-07T03:50:23.149Z,14.14
2022-11-07T03:53:26.956Z,14.06
2022-11-07T03:56:30.835Z,14.11
2022-11-07T03:59:35.667Z,14.04
2022-11-07T04:02:57.965Z,13.92
2022-11-07T04:06:01.371Z,14.04
2022-11-07T04:09:23.164Z,14.02
2022-11-07T04:12:43.780Z,14.12
2022-11-07T04:16:08.015Z,14.07
2022-11-07T04:19:11.385Z,14.10
2022-11-07T04:22:15.237Z,14.14
2022-11-07T04:25:38.841Z,14.15
2022-11-07T04:28:42.457Z,14.15
2022-11-07T04:31:47.245Z,14.10
2022-11-07T04:34:51.026Z,14.15
2022-11-07T04:37:54.639Z,14.10
2022-11-07T04:40:59.343Z,14.06
2022-11-07T04:44:02.804Z,14.06
2022-11-07T04:47:08.434Z,14.11
2022-11-07T04:50:15.938Z,14.14
2022-11-07T04:53:20.127Z,14.06
2022-11-07T04:56:23.523Z,14.07
2022-11-07T04:59:27.444Z,14.00
2022-11-07T05:02:32.606Z,14.06
2022-11-07T05:05:36.333Z,14.12
2022-11-07T05:08:39.689Z,14.01
2022-11-07T05:11:43.438Z,14.03
2022-11-07T05:14:46.843Z,14.13
2022-11-07T05:17:51.881Z,14.12
2022-11-07T05:20:55.374Z,14.09
2022-11-07T05:23:59.091Z,14.07
2022-11-07T05:27:02.578Z,14.08
2022-11-07T05:30:07.568Z,14.04
2022-11-07T05:33:14.118Z,14.16
2022-11-07T05:36:19.781Z,14.09
2022-11-07T05:39:23.563Z,14.10
2022-11-07T05:42:27.540Z,14.09
2022-11-07T05:45:32.683Z,13.86
2022-11-07T05:48:38.587Z,13.91
2022-11-07T05:51:43.349Z,13.93
2022-11-07T05:54:47.024Z,14.05
2022-11-07T05:57:51.834Z,14.05
2022-11-07T06:00:55.475Z,14.17
2022-11-07T06:04:00.436Z,14.15
2022-11-07T06:07:04.299Z,14.17
2022-11-07T06:10:10.040Z,14.17
2022-11-07T06:13:15.910Z,14.25
2022-11-07T06:16:19.502Z,14.26
2022-11-07T06:19:24.546Z,14.29
2022-11-07T06:22:28.207Z,14.18
2022-11-07T06:25:32.797Z,14.10
2022-11-07T06:28:37.409Z,14.13
2022-11-07T06:31:41.053Z,13.99
2022-11-07T06:34:45.953Z,14.20
2022-11-07T06:37:49.676Z,14.03
2022-11-07T06:40:53.077Z,14.16
2022-11-07T06:43:56.869Z,14.14
2022-11-07T06:47:00.261Z,14.19
2022-11-07T06:50:05.973Z,14.27
2022-11-07T06:53:11.338Z,14.34
2022-11-07T06:56:16.590Z,14.20
2022-11-07T06:59:20.003Z,14.16
2022-11-07T07:02:51.825Z,14.26
2022-11-07T07:05:48.882Z,14.35
2022-11-07T07:08:53.307Z,14.44
2022-11-07T07:11:56.731Z,14.44
2022-11-07T07:15:00.420Z,14.39
2022-11-07T07:18:04.821Z,14.34
2022-11-07T07:21:12.181Z,14.27
2022-11-07T07:24:15.756Z,14.43
2022-11-07T07:27:20.450Z,14.41
2022-11-07T07:30:24.400Z,14.45
2022-11-07T07:33:28.171Z,14.52
2022-11-07T07:36:33.149Z,14.60
2022-11-07T07:39:36.894Z,14.50
2022-11-07T07:42:44.174Z,14.61
2022-11-07T07:45:47.945Z,14.41
2022-11-07T07:48:51.314Z,14.57
2022-11-07T07:51:56.931Z,14.62
2022-11-07T07:55:00.372Z,14.61
2022-11-07T07:58:04.216Z,14.73
2022-11-07T08:01:10.465Z,14.65
2022-11-07T08:04:14.528Z,14.64
2022-11-07T08:07:19.516Z,14.64
2022-11-07T08:13:47.373Z,14.57
2022-11-07T08:16:51.483Z,14.67
2022-11-07T08:19:55.086Z,14.52
2022-11-07T08:23:08.626Z,14.64
2022-11-07T08:26:16.454Z,14.72
2022-11-07T08:29:20.348Z,14.68
2022-11-07T08:32:23.957Z,14.74
2022-11-07T08:35:28.649Z,14.80
2022-11-07T08:38:35.774Z,14.70
2022-11-07T08:41:39.622Z,14.67
2022-11-07T08:44:43.126Z,14.73
2022-11-07T08:47:47.211Z,14.62
2022-11-07T08:50:53.797Z,14.71
2022-11-07T08:53:58.968Z,14.65
2022-11-07T08:57:02.723Z,14.51
2022-11-07T09:00:07.724Z,14.63
2022-11-07T09:06:36.117Z,14.89
2022-11-07T09:09:41.019Z,14.87
2022-11-07T09:12:48.733Z,15.00
2022-11-07T09:15:52.213Z,15.08
2022-11-07T09:18:56.073Z,15.06
2022-11-07T09:21:59.466Z,15.15
2022-11-07T09:25:04.976Z,15.13
2022-11-07T09:28:08.619Z,15.04
2022-11-07T09:31:12.521Z,15.21
2022-11-07T09:34:16.013Z,15.28
2022-11-07T09:37:21.593Z,15.33
2022-11-07T09:40:40.842Z,15.29
2022-11-07T09:43:58.256Z,15.46
2022-11-07T09:47:08.836Z,15.39
2022-11-07T09:50:19.095Z,15.32
2022-11-07T09:53:31.345Z,15.50
2022-11-07T09:56:36.842Z,15.57
2022-11-07T09:59:46.194Z,15.56
2022-11-07T10:02:54.043Z,15.70
2022-11-07T10:06:07.606Z,15.67
2022-11-07T10:09:18.299Z,15.62
2022-11-07T10:12:44.724Z,15.59
2022-11-07T10:16:02.011Z,15.55
2022-11-07T10:19:21.664Z,15.66
2022-11-07T10:22:58.012Z,15.70
2022-11-07T10:26:09.443Z,15.89
2022-11-07T10:29:16.752Z,15.92
2022-11-07T10:32:25.581Z,15.99
2022-11-07T10:35:32.343Z,15.90
2022-11-07T10:38:36.620Z,15.88
2022-11-07T10:41:43.946Z,15.98
2022-11-07T10:44:50.468Z,15.96
2022-11-07T10:48:00.646Z,16.02
2022-11-07T10:51:04.618Z,16.02
2022-11-07T10:54:21.790Z,16.14
2022-11-07T10:57:31.194Z,16.14
2022-11-07T11:00:39.630Z,16.24
2022-11-07T11:03:45.866Z,16.26
2022-11-07T11:06:58.793Z,16.19
2022-11-07T11:10:03.401Z,16.19
2022-11-07T11:13:07.791Z,16.21
2022-11-07T11:16:26.265Z,16.26
2022-11-07T11:19:40.343Z,16.26
2022-11-07T11:22:44.073Z,16.34
2022-11-07T11:25:50.194Z,16.33
2022-11-07T11:28:59.512Z,16.34
2022-11-07T11:32:05.843Z,16.38
2022-11-07T11:35:43.330Z,16.34
2022-11-07T11:38:54.491Z,16.35
2022-11-07T11:42:32.239Z,16.29
2022-11-07T11:45:44.198Z,16.22
2022-11-07T11:48:53.935Z,16.24
2022-11-07T11:52:04.355Z,16.35
2022-11-07T11:55:14.144Z,16.38
2022-11-07T11:58:32.480Z,16.28
2022-11-07T12:01:44.510Z,15.88
2022-11-07T12:05:01.114Z,15.70
2022-11-07T12:08:18.831Z,15.91
2022-11-07T12:11:28.834Z,16.04
2022-11-07T12:14:58.846Z,16.04
2022-11-07T12:18:11.049Z,16.20
2022-11-07T12:21:27.833Z,16.22
2022-11-07T12:24:39.227Z,16.32
2022-11-07T12:27:53.353Z,16.34
2022-11-07T12:31:08.912Z,16.35
2022-11-07T12:34:31.923Z,16.36
2022-11-07T12:37:57.809Z,16.30
2022-11-07T12:41:08.519Z,16.31
2022-11-07T12:44:28.914Z,16.23
2022-11-07T12:47:50.926Z,16.24
2022-11-07T12:51:04.136Z,16.23
2022-11-07T12:54:31.797Z,16.02
2022-11-07T12:57:38.985Z,15.85
2022-11-07T13:00:43.369Z,15.82
2022-11-07T13:04:05.012Z,15.73
2022-11-07T13:07:18.401Z,15.73
2022-11-07T13:10:33.637Z,15.88
2022-11-07T13:13:48.326Z,15.81
2022-11-07T13:16:55.129Z,15.52
2022-11-07T13:20:03.916Z,15.38
2022-11-07T13:23:16.382Z,15.31
2022-11-07T13:26:47.007Z,15.37
2022-11-07T13:29:52.886Z,15.25
2022-11-07T13:32:56.268Z,15.44
2022-11-07T13:36:11.947Z,15.51
2022-11-07T13:39:17.010Z,15.56
2022-11-07T13:42:26.938Z,15.55
2022-11-07T13:45:35.145Z,15.57
2022-11-07T13:48:48.715Z,15.24
2022-11-07T13:51:54.645Z,15.32
2022-11-07T13:55:05.772Z,15.26
2022-11-07T13:58:14.463Z,15.26
2022-11-07T14:01:18.740Z,15.35
2022-11-07T14:04:23.678Z,15.38
2022-11-07T14:07:28.978Z,15.46
2022-11-07T14:10:38.854Z,15.04
2022-11-07T14:13:45.230Z,15.33
2022-11-07T14:16:48.969Z,15.32
2022-11-07T14:19:52.912Z,15.26
2022-11-07T14:22:57.910Z,15.41
2022-11-07T14:26:05.955Z,15.52
2022-11-07T14:29:23.479Z,15.42
2022-11-07T14:32:32.020Z,15.39
2022-11-07T14:35:36.621Z,15.51
2022-11-07T14:38:47.283Z,15.38
2022-11-07T14:41:52.353Z,15.20
2022-11-07T14:44:58.073Z,15.29
2022-11-07T14:48:03.080Z,15.29
2022-11-07T14:51:07.436Z,15.49
2022-11-07T14:54:17.286Z,15.39
2022-11-07T14:57:21.238Z,15.39
2022-11-07T15:00:26.613Z,15.50
2022-11-07T15:03:34.372Z,15.53
2022-11-07T15:06:44.708Z,15.57
2022-11-07T15:09:48.900Z,15.24
2022-11-07T15:12:54.822Z,15.00
2022-11-07T15:16:06.764Z,15.13
2022-11-07T15:19:20.120Z,15.10
2022-11-07T15:22:30.299Z,15.28
2022-11-07T15:25:36.898Z,15.41
2022-11-07T15:28:49.517Z,15.37
2022-11-07T15:31:55.680Z,15.41
2022-11-07T15:35:17.354Z,15.48
2022-11-07T15:38:26.314Z,15.38
2022-11-07T15:41:30.521Z,15.46
2022-11-07T15:44:33.975Z,15.36
2022-11-07T15:47:40.537Z,15.38
2022-11-07T15:50:45.640Z,15.23
2022-11-07T15:53:49.522Z,15.21
2022-11-07T15:56:58.343Z,15.29
2022-11-07T16:00:03.077Z,15.33
2022-11-07T16:03:19.998Z,15.24
2022-11-07T16:06:31.207Z,15.14
2022-11-07T16:09:35.093Z,15.04
2022-11-07T16:12:38.995Z,14.82
2022-11-07T16:15:46.822Z,14.88
2022-11-07T16:18:54.513Z,14.53
2022-11-07T16:21:58.363Z,14.59
2022-11-07T16:25:04.226Z,14.47
2022-11-07T16:28:23.360Z,14.48
2022-11-07T16:31:27.268Z,14.74
2022-11-07T16:34:32.198Z,14.91
2022-11-07T16:37:36.616Z,14.83
2022-11-07T16:40:40.299Z,14.98
2022-11-07T16:43:44.512Z,15.03
2022-11-07T16:46:48.193Z,15.13
2022-11-07T16:49:56.049Z,15.19
2022-11-07T16:52:59.935Z,15.21
2022-11-07T16:56:04.877Z,15.17
2022-11-07T16:59:10.042Z,15.26
2022-11-07T17:02:21.900Z,15.14
2022-11-07T17:05:28.148Z,15.15
2022-11-07T17:08:37.911Z,15.24
2022-11-07T17:11:41.860Z,15.30
2022-11-07T17:14:46.005Z,15.21
2022-11-07T17:17:49.533Z,15.15
2022-11-07T17:20:55.725Z,15.03
2022-11-07T17:24:00.356Z,15.10
2022-11-07T17:27:05.376Z,15.10
2022-11-07T17:30:17.855Z,15.08
2022-11-07T17:33:21.678Z,15.09
2022-11-07T17:36:36.318Z,15.16
2022-11-07T17:39:40.617Z,15.17
2022-11-07T17:42:44.061Z,15.16
2022-11-07T17:45:48.212Z,14.99
2022-11-07T17:48:51.794Z,14.94
2022-11-07T17:51:59.203Z,15.00
2022-11-07T17:55:03.414Z,15.11
2022-11-07T17:58:25.631Z,15.14
2022-11-07T18:01:32.557Z,15.13
2022-11-07T18:04:36.428Z,15.18
2022-11-07T18:07:41.275Z,15.20
2022-11-07T18:10:45.053Z,15.14
2022-11-07T18:13:50.934Z,15.09
2022-11-07T18:16:54.743Z,15.11
2022-11-07T18:20:17.614Z,15.09
2022-11-07T18:23:24.284Z,15.06
2022-11-07T18:26:31.263Z,15.11
2022-11-07T18:29:35.481Z,15.16
2022-11-07T18:32:38.869Z,15.07
2022-11-07T18:35:42.650Z,15.07
2022-11-07T18:38:47.924Z,15.16
2022-11-07T18:41:54.002Z,15.16
2022-11-07T18:44:57.645Z,15.16
2022-11-07T18:48:01.411Z,15.10
2022-11-07T18:51:09.866Z,15.13
2022-11-07T18:54:15.792Z,15.15
2022-11-07T18:57:19.202Z,15.12
2022-11-07T19:00:22.971Z,15.09
2022-11-07T19:03:26.400Z,15.04
2022-11-07T19:06:32.377Z,14.96
2022-11-07T19:09:37.646Z,15.00
2022-11-07T19:12:41.879Z,15.01
2022-11-07T19:15:45.351Z,14.85
2022-11-07T19:18:50.393Z,14.90
2022-11-07T19:21:53.863Z,15.00
2022-11-07T19:24:59.324Z,14.99
2022-11-07T19:28:02.757Z,14.95
2022-11-07T19:31:08.488Z,14.99
2022-11-07T19:34:11.931Z,14.97
2022-11-07T19:37:15.675Z,14.99
2022-11-07T19:40:20.555Z,14.98
2022-11-07T19:43:24.649Z,15.01
2022-11-07T19:46:28.042Z,15.01
2022-11-07T19:49:31.851Z,15.08
2022-11-07T19:52:35.893Z,15.10
2022-11-07T19:55:43.103Z,15.09
2022-11-07T19:58:47.385Z,15.11
2022-11-07T20:02:17.850Z,15.08
2022-11-07T20:05:24.204Z,15.02
2022-11-07T20:08:28.467Z,15.06
2022-11-07T20:11:33.343Z,15.10
2022-11-07T20:14:38.883Z,15.10
2022-11-07T20:17:42.656Z,15.09
2022-11-07T20:20:46.649Z,15.07
2022-11-07T20:23:53.857Z,15.08
2022-11-07T20:27:00.215Z,15.11
2022-11-07T20:30:03.810Z,15.12
2022-11-07T20:33:07.870Z,15.12
2022-11-07T20:36:14.406Z,15.13
2022-11-07T20:39:20.175Z,15.12
2022-11-07T20:42:25.579Z,15.10
2022-11-07T20:45:29.621Z,15.03
2022-11-07T20:48:33.647Z,15.06
2022-11-07T20:51:37.831Z,15.03
2022-11-07T20:54:41.460Z,15.06
2022-11-07T20:57:46.849Z,15.06
2022-11-07T21:00:53.175Z,15.08
2022-11-07T21:03:58.345Z,15.13
2022-11-07T21:07:02.200Z,15.14
2022-11-07T21:10:07.310Z,15.13
2022-11-07T21:13:14.237Z,15.04
2022-11-07T21:16:18.464Z,15.06
2022-11-07T21:19:21.974Z,15.09
2022-11-07T21:22:29.345Z,15.07
2022-11-07T21:25:33.127Z,14.97
2022-11-07T21:28:40.459Z,14.97
2022-11-07T21:31:44.179Z,14.99
2022-11-07T21:34:48.151Z,15.04
2022-11-07T21:37:52.155Z,15.07
2022-11-07T21:40:55.895Z,14.91
2022-11-07T21:44:00.758Z,14.78
2022-11-07T21:47:04.518Z,14.91
2022-11-07T21:50:23.877Z,14.90
2022-11-07T21:53:37.489Z,14.87
2022-11-07T21:56:41.594Z,14.91
2022-11-07T21:59:47.395Z,14.94
2022-11-07T22:02:51.032Z,14.90
2022-11-07T22:05:55.139Z,14.81
2022-11-07T22:08:58.671Z,14.71
2022-11-07T22:12:02.356Z,14.73
2022-11-07T22:15:08.217Z,14.85
2022-11-07T22:18:12.539Z,14.87
2022-11-07T22:21:18.519Z,14.75
2022-11-07T22:24:23.797Z,14.75
2022-11-07T22:27:27.243Z,14.83
2022-11-07T22:30:32.421Z,14.76
2022-11-07T22:33:35.944Z,14.82
2022-11-07T22:36:40.085Z,14.76
2022-11-07T22:39:43.496Z,14.67
2022-11-07T22:42:47.152Z,14.76
2022-11-07T22:45:52.140Z,14.75
2022-11-07T22:48:57.402Z,14.82
2022-11-07T22:52:00.913Z,14.85
2022-11-07T22:55:23.111Z,14.81
2022-11-07T22:58:26.612Z,14.74
2022-11-07T23:01:34.090Z,14.71
2022-11-07T23:07:58.628Z,14.89
2022-11-07T23:14:27.904Z,14.91
2022-11-07T23:17:33.424Z,14.87
2022-11-07T23:20:54.288Z,14.91
2022-11-07T23:23:59.688Z,14.80
2022-11-07T23:27:03.591Z,14.90
2022-11-07T23:30:07.902Z,14.94
2022-11-07T23:33:13.017Z,14.97
2022-11-07T23:36:18.146Z,14.91
2022-11-07T23:39:23.797Z,14.77
2022-11-07T23:42:27.379Z,14.72
2022-11-07T23:45:48.532Z,14.71
2022-11-07T23:49:14.527Z,14.77
2022-11-07T23:52:19.388Z,14.86
2022-11-07T23:55:40.044Z,14.78
2022-11-07T23:59:01.337Z,14.77
